Airfield :
LOGIN :

Register | Disclaimer

   EN    FR    IT 

 










Legend :    VFR   Marginal VFR   IFR   Intensive IFR   Very Intensive IFR
Visi :
Ceiling :
>= 8 km
>= 3000ft
5 to 8 km
1000 to 3000 ft
1500m to 5 km
500 to 1000 ft
800 to 1500m
200 to 500 ft
< 800m
< 200 ft
Symbols :   Thunderstorms  Fog  Heavy snow  Heavy precipitations  Wind > 20 kt
SIGMETs :     Misc.  Thunderstorms  Icing  Turbulence  Mountain Waves  Volcanic Ashes






- Airport Elevation : 681 ft
- IATA code : OSL


ENGM - Oslo Gardermoen

CURRENT METAR :
  • 112250Z 16010KT 9999 BKN015 02/01 Q0995

EXPIRED METARs :
  • 112220Z 16010KT 9999 FEW014 BKN016 02/01 Q0995
  • 112150Z 18010KT 9999 FEW010 SCT014 BKN025 02/01 Q0995 NOSIG
  • 112120Z 16012KT 9999 FEW014 OVC021 02/01 Q0995 NOSIG
  • 112050Z 17012KT 9999 FEW011 SCT027 02/01 Q0995 NOSIG
  • 112020Z 19014KT CAVOK 02/01 Q0995 NOSIG

TAF TAF ENGM
Valid from the 11 at 18:00 until the 12 at 18:00 UTC


1118/1218 17008KT 9999 SCT012 BKN015
PROB40 1118/1206 2000 BCFG OVC003
BECMG 1204/1206 BKN010
TEMPO 1206/1212 4000 SHRASN BR BKN002
BECMG 1212/1214 3000 -SNRA BKN004
TEMPO 1212/1218 0800 SN



MET'MAP, your aeronautical weather chart ! - Copyright ORBIFLY December 2007 - Disclaimer

ORBIFLY MET'MAP TEAM :

Programming & Development : Alexandra Zaïnal
Concept & original design : Baudouin d'Aumeries
Assistance for programming : Marc-Olivier Méhu
Technical & hardware support : Manuel Goepfert

Contact : metmap@orbifly.com




SOURCES & CREDITS :

   NOAA